createdAt,value
2023-08-08T00:00:04.619Z,51.259468
2023-08-08T00:01:04.626Z,51.259411
2023-08-08T00:02:04.582Z,51.259480
2023-08-08T00:03:04.627Z,51.259525
2023-08-08T00:04:04.800Z,51.259506
2023-08-08T00:05:04.579Z,51.259441
2023-08-08T00:06:04.547Z,51.259441
2023-08-08T00:07:04.523Z,51.259460
2023-08-08T00:08:04.522Z,51.259468
2023-08-08T00:09:04.527Z,51.259502
2023-08-08T00:10:04.534Z,51.259472
2023-08-08T00:11:04.493Z,51.259495
2023-08-08T00:12:05.481Z,51.259521
2023-08-08T00:13:04.467Z,51.259487
2023-08-08T00:14:04.523Z,51.259518
2023-08-08T00:15:04.466Z,51.259544
2023-08-08T00:16:04.518Z,51.259579
2023-08-08T00:17:04.425Z,51.259560
2023-08-08T00:18:05.445Z,51.259602
2023-08-08T00:19:04.475Z,51.259563
2023-08-08T00:20:04.401Z,51.259525
2023-08-08T00:21:04.405Z,51.259529
2023-08-08T00:22:04.387Z,51.259525
2023-08-08T00:23:04.357Z,51.259476
2023-08-08T00:24:04.359Z,51.259472
2023-08-08T00:25:05.393Z,51.259529
2023-08-08T00:26:04.338Z,51.259544
2023-08-08T00:27:04.339Z,51.259586
2023-08-08T00:28:04.336Z,51.259621
2023-08-08T00:29:04.329Z,51.259579
2023-08-08T00:30:04.300Z,51.259640
2023-08-08T00:31:04.341Z,51.259598
2023-08-08T00:32:04.276Z,51.259567
2023-08-08T00:33:04.354Z,51.259518
2023-08-08T00:34:04.258Z,51.259529
2023-08-08T00:35:04.257Z,51.259521
2023-08-08T00:36:04.247Z,51.259483
2023-08-08T00:37:04.232Z,51.259476
2023-08-08T00:38:04.235Z,51.259491
2023-08-08T00:39:04.204Z,51.259541
2023-08-08T00:40:04.195Z,51.259521
2023-08-08T00:41:04.180Z,51.259491
2023-08-08T00:42:04.193Z,51.259434
2023-08-08T00:43:04.193Z,51.259483
2023-08-08T00:44:04.158Z,51.259487
2023-08-08T00:45:04.142Z,51.259476
2023-08-08T00:46:04.163Z,51.259457
2023-08-08T00:47:04.202Z,51.259422
2023-08-08T00:48:04.138Z,51.259449
2023-08-08T00:49:04.118Z,51.259506
2023-08-08T00:50:04.086Z,51.259472
2023-08-08T00:51:04.096Z,51.259480
2023-08-08T00:52:04.098Z,51.259499
2023-08-08T00:53:04.064Z,51.259487
2023-08-08T00:54:04.066Z,51.259506
2023-08-08T00:55:04.042Z,51.259495
2023-08-08T00:56:04.058Z,51.259495
2023-08-08T00:57:04.112Z,51.259453
2023-08-08T00:58:04.006Z,51.259480
2023-08-08T00:59:04.024Z,51.259491
2023-08-08T01:00:04.005Z,51.259495
2023-08-08T01:01:04.051Z,51.259495
2023-08-08T01:02:04.008Z,51.259514
2023-08-08T01:03:04.017Z,51.259495
2023-08-08T01:04:03.949Z,51.259506
2023-08-08T01:05:03.945Z,51.259521
2023-08-08T01:06:03.948Z,51.259483
2023-08-08T01:07:03.941Z,51.259480
2023-08-08T01:08:03.914Z,51.259491
2023-08-08T01:09:03.894Z,51.259495
2023-08-08T01:10:03.924Z,51.259476
2023-08-08T01:11:03.920Z,51.259518
2023-08-08T01:12:03.891Z,51.259514
2023-08-08T01:13:03.882Z,51.259472
2023-08-08T01:14:03.844Z,51.259487
2023-08-08T01:15:03.861Z,51.259438
2023-08-08T01:16:03.832Z,51.259441
2023-08-08T01:17:03.831Z,51.259445
2023-08-08T01:18:03.852Z,51.259476
2023-08-08T01:19:03.813Z,51.259441
2023-08-08T01:20:03.827Z,51.259487
2023-08-08T01:21:03.788Z,51.259480
2023-08-08T01:22:03.778Z,51.259480
2023-08-08T01:23:03.809Z,51.259396
2023-08-08T01:24:03.779Z,51.259480
2023-08-08T01:25:03.755Z,51.259480
2023-08-08T01:26:03.741Z,51.259602
2023-08-08T01:27:03.717Z,51.259594
2023-08-08T01:28:03.716Z,51.259502
2023-08-08T01:29:03.805Z,51.259510
2023-08-08T01:30:03.735Z,51.259537
2023-08-08T01:31:03.710Z,51.259502
2023-08-08T01:32:03.675Z,51.259472
2023-08-08T01:33:03.693Z,51.259510
2023-08-08T01:34:03.681Z,51.259480
2023-08-08T01:35:03.640Z,51.259495
2023-08-08T01:36:03.622Z,51.259518
2023-08-08T01:37:03.610Z,51.259483
2023-08-08T01:38:03.630Z,51.259525
2023-08-08T01:39:03.619Z,51.259563
2023-08-08T01:40:03.657Z,51.259430
2023-08-08T01:41:03.577Z,51.259502
2023-08-08T01:42:03.912Z,51.259476
2023-08-08T01:43:03.581Z,51.259537
2023-08-08T01:44:03.543Z,51.259556
2023-08-08T01:45:03.535Z,51.259548
2023-08-08T01:46:03.547Z,51.259510
2023-08-08T01:47:03.518Z,51.259518
2023-08-08T01:48:03.546Z,51.259499
2023-08-08T01:49:03.484Z,51.259506
2023-08-08T01:50:03.484Z,51.259579
2023-08-08T01:51:03.466Z,51.259579
2023-08-08T01:52:03.497Z,51.259617
2023-08-08T01:53:03.482Z,51.259609
2023-08-08T01:54:03.436Z,51.259556
2023-08-08T01:55:03.449Z,51.259563
2023-08-08T01:56:03.427Z,51.259624
2023-08-08T01:57:03.437Z,51.259613
2023-08-08T01:58:03.403Z,51.259602
2023-08-08T01:59:03.387Z,51.259609
2023-08-08T02:00:03.403Z,51.259537
2023-08-08T02:01:03.377Z,51.259552
2023-08-08T02:02:03.456Z,51.259571
2023-08-08T02:03:03.404Z,51.259567
2023-08-08T02:04:03.339Z,51.259563
2023-08-08T02:05:03.358Z,51.259560
2023-08-08T02:06:03.338Z,51.259541
2023-08-08T02:07:03.335Z,51.259506
2023-08-08T02:08:03.309Z,51.259480
2023-08-08T02:09:03.384Z,51.259541
2023-08-08T02:10:03.300Z,51.259544
2023-08-08T02:11:03.305Z,51.259514
2023-08-08T02:12:03.264Z,51.259506
2023-08-08T02:13:03.256Z,51.259483
2023-08-08T02:14:03.246Z,51.259567
2023-08-08T02:15:03.233Z,51.259571
2023-08-08T02:16:03.276Z,51.259552
2023-08-08T02:17:03.229Z,51.259590
2023-08-08T02:18:03.199Z,51.259579
2023-08-08T02:19:03.202Z,51.259586
2023-08-08T02:20:03.211Z,51.259529
2023-08-08T02:21:03.198Z,51.259563
2023-08-08T02:22:03.178Z,51.259529
2023-08-08T02:23:03.162Z,51.259445
2023-08-08T02:24:03.147Z,51.259529
2023-08-08T02:25:03.165Z,51.259533
2023-08-08T02:26:03.128Z,51.259533
2023-08-08T02:27:03.123Z,51.259548
2023-08-08T02:28:03.119Z,51.259525
2023-08-08T02:29:03.097Z,51.259567
2023-08-08T02:30:03.099Z,51.259586
2023-08-08T02:31:03.068Z,51.259598
2023-08-08T02:32:03.208Z,51.259621
2023-08-08T02:33:03.065Z,51.259640
2023-08-08T02:34:03.071Z,51.259537
2023-08-08T02:35:03.058Z,51.259586
2023-08-08T02:36:34.924Z,51.259537
2023-08-08T02:37:03.004Z,51.259537
2023-08-08T02:38:03.006Z,51.259602
2023-08-08T02:39:03.044Z,51.259583
2023-08-08T02:40:02.983Z,51.259579
2023-08-08T02:41:02.961Z,51.259541
2023-08-08T02:42:02.963Z,51.259613
2023-08-08T02:43:03.016Z,51.259480
2023-08-08T02:44:03.031Z,51.259529
2023-08-08T02:45:02.936Z,51.259575
2023-08-08T02:46:02.932Z,51.259548
2023-08-08T02:47:02.898Z,51.259552
2023-08-08T02:48:02.924Z,51.259579
2023-08-08T02:49:02.880Z,51.259563
2023-08-08T02:50:02.885Z,51.259598
2023-08-08T02:51:02.856Z,51.259537
2023-08-08T02:52:02.914Z,51.259491
2023-08-08T02:53:02.866Z,51.259480
2023-08-08T02:54:03.837Z,51.259609
2023-08-08T02:55:02.859Z,51.259563
2023-08-08T02:56:02.816Z,51.259617
2023-08-08T02:57:02.830Z,51.259602
2023-08-08T02:58:02.800Z,51.259605
2023-08-08T02:59:02.782Z,51.259575
2023-08-08T03:00:02.767Z,51.259556
2023-08-08T03:01:02.771Z,51.259541
2023-08-08T03:02:03.007Z,51.259655
2023-08-08T03:03:02.773Z,51.259636
2023-08-08T03:04:02.750Z,51.259552
2023-08-08T03:05:02.721Z,51.259518
2023-08-08T03:06:02.708Z,51.259499
2023-08-08T03:07:02.760Z,51.259575
2023-08-08T03:08:02.690Z,51.259632
2023-08-08T03:09:02.679Z,51.259632
2023-08-08T03:10:02.671Z,51.259628
2023-08-08T03:11:02.675Z,51.259651
2023-08-08T03:12:02.679Z,51.259624
2023-08-08T03:13:02.639Z,51.259529
2023-08-08T03:14:02.625Z,51.259502
2023-08-08T03:15:02.616Z,51.259457
2023-08-08T03:16:02.695Z,51.259430
2023-08-08T03:17:02.597Z,51.259468
2023-08-08T03:18:02.632Z,51.259506
2023-08-08T03:19:02.591Z,51.259556
2023-08-08T03:20:02.618Z,51.259525
2023-08-08T03:21:02.594Z,51.259506
2023-08-08T03:22:02.927Z,51.259506
2023-08-08T03:23:02.557Z,51.259487
2023-08-08T03:24:02.532Z,51.259548
2023-08-08T03:25:02.541Z,51.259541
2023-08-08T03:26:02.612Z,51.259586
2023-08-08T03:27:02.500Z,51.259613
2023-08-08T03:28:02.481Z,51.259571
2023-08-08T03:29:02.469Z,51.259541
2023-08-08T03:30:02.640Z,51.259651
2023-08-08T03:31:02.463Z,51.259617
2023-08-08T03:32:02.729Z,51.259621
2023-08-08T03:33:02.466Z,51.259678
2023-08-08T03:34:02.450Z,51.259552
2023-08-08T03:35:03.524Z,51.259537
2023-08-08T03:36:02.401Z,51.259674
2023-08-08T03:37:02.391Z,51.259514
2023-08-08T03:38:02.386Z,51.259544
2023-08-08T03:39:02.402Z,51.259525
2023-08-08T03:40:02.376Z,51.259586
2023-08-08T03:41:02.360Z,51.259628
2023-08-08T03:42:02.620Z,51.259583
2023-08-08T03:43:02.333Z,51.259556
2023-08-08T03:44:02.360Z,51.259556
2023-08-08T03:45:02.323Z,51.259617
2023-08-08T03:46:02.307Z,51.259678
2023-08-08T03:47:13.759Z,51.259731
2023-08-08T03:48:04.318Z,51.259747
2023-08-08T03:49:02.299Z,51.259644
2023-08-08T03:50:02.252Z,51.259499
2023-08-08T03:51:02.256Z,51.259521
2023-08-08T03:52:02.235Z,51.259590
2023-08-08T03:53:03.242Z,51.259510
2023-08-08T03:54:02.302Z,51.259502
2023-08-08T03:55:02.215Z,51.259598
2023-08-08T03:56:02.197Z,51.259571
2023-08-08T03:57:02.209Z,51.259560
2023-08-08T03:58:02.219Z,51.259575
2023-08-08T03:59:02.172Z,51.259537
2023-08-08T04:00:02.168Z,51.259605
2023-08-08T04:01:02.208Z,51.259670
2023-08-08T04:02:02.307Z,51.259651
2023-08-08T04:03:02.163Z,51.260025
2023-08-08T04:04:02.111Z,51.259773
2023-08-08T04:05:02.114Z,51.259624
2023-08-08T04:06:02.124Z,51.259602
2023-08-08T04:07:02.076Z,51.259594
2023-08-08T04:08:02.097Z,51.259628
2023-08-08T04:09:02.059Z,51.259586
2023-08-08T04:10:02.071Z,51.259563
2023-08-08T04:11:02.057Z,51.259552
2023-08-08T04:12:02.397Z,51.259495
2023-08-08T04:13:02.040Z,51.259521
2023-08-08T04:14:02.062Z,51.259529
2023-08-08T04:15:01.993Z,51.259590
2023-08-08T04:16:01.990Z,51.259560
2023-08-08T04:17:02.020Z,51.259529
2023-08-08T04:18:01.990Z,51.259575
2023-08-08T04:19:01.952Z,51.259533
2023-08-08T04:20:01.951Z,51.259560
2023-08-08T04:21:01.929Z,51.259586
2023-08-08T04:22:02.231Z,51.259602
2023-08-08T04:23:01.915Z,51.259594
2023-08-08T04:24:01.904Z,51.259613
2023-08-08T04:25:01.902Z,51.259602
2023-08-08T04:26:01.903Z,51.259590
2023-08-08T04:27:01.899Z,51.259586
2023-08-08T04:28:01.870Z,51.259544
2023-08-08T04:29:01.878Z,51.259544
2023-08-08T04:30:01.976Z,51.259541
2023-08-08T04:31:01.888Z,51.259571
2023-08-08T04:32:02.118Z,51.259563
2023-08-08T04:33:01.878Z,51.259586
2023-08-08T04:34:02.438Z,51.259529
2023-08-08T04:35:01.815Z,51.259556
2023-08-08T04:36:01.803Z,51.259491
2023-08-08T04:37:01.771Z,51.259544
2023-08-08T04:38:01.759Z,51.259525
2023-08-08T04:39:01.746Z,51.259579
2023-08-08T04:40:01.815Z,51.259518
2023-08-08T04:41:01.756Z,51.259514
2023-08-08T04:42:01.935Z,51.259552
2023-08-08T04:43:01.717Z,51.259502
2023-08-08T04:44:01.706Z,51.259476
2023-08-08T04:45:01.719Z,51.259521
2023-08-08T04:46:01.786Z,51.259563
2023-08-08T04:47:01.676Z,51.259609
2023-08-08T04:48:01.721Z,51.259533
2023-08-08T04:49:01.746Z,51.259541
2023-08-08T04:50:01.662Z,51.259556
2023-08-08T04:51:01.665Z,51.259560
2023-08-08T04:52:01.896Z,51.259567
2023-08-08T04:53:01.612Z,51.259571
2023-08-08T04:54:01.615Z,51.259552
2023-08-08T04:55:01.585Z,51.259613
2023-08-08T04:56:01.601Z,51.259525
2023-08-08T04:57:01.580Z,51.259518
2023-08-08T04:58:01.583Z,51.259541
2023-08-08T04:59:01.577Z,51.259438
2023-08-08T05:00:01.539Z,51.259453
2023-08-08T05:01:01.575Z,51.259541
2023-08-08T05:02:01.783Z,51.259472
2023-08-08T05:03:01.587Z,51.259541
2023-08-08T05:04:01.560Z,51.259556
2023-08-08T05:05:01.490Z,51.259548
2023-08-08T05:06:01.485Z,51.259499
2023-08-08T05:07:01.468Z,51.259567
2023-08-08T05:08:01.482Z,51.259449
2023-08-08T05:09:01.490Z,51.259544
2023-08-08T05:10:01.465Z,51.259518
2023-08-08T05:11:01.433Z,51.259460
2023-08-08T05:12:01.677Z,51.259533
2023-08-08T05:13:01.425Z,51.259506
2023-08-08T05:14:01.397Z,51.259491
2023-08-08T05:15:01.391Z,51.259468
2023-08-08T05:16:01.397Z,51.259552
2023-08-08T05:17:01.364Z,51.259548
2023-08-08T05:18:01.384Z,51.259556
2023-08-08T05:19:01.353Z,51.259590
2023-08-08T05:20:01.338Z,51.259548
2023-08-08T05:21:01.334Z,51.259567
2023-08-08T05:22:01.689Z,51.259529
2023-08-08T05:23:01.346Z,51.259567
2023-08-08T05:24:01.341Z,51.259396
2023-08-08T05:25:01.301Z,51.259491
2023-08-08T05:26:01.277Z,51.259453
2023-08-08T05:27:01.283Z,51.259495
2023-08-08T05:28:01.244Z,51.259483
2023-08-08T05:29:01.234Z,51.259510
2023-08-08T05:30:01.231Z,51.259632
2023-08-08T05:31:01.244Z,51.259495
2023-08-08T05:32:01.425Z,51.259399
2023-08-08T05:33:01.220Z,51.259441
2023-08-08T05:34:01.199Z,51.259502
2023-08-08T05:35:01.203Z,51.259472
2023-08-08T05:36:01.214Z,51.259525
2023-08-08T05:37:14.433Z,51.259552
2023-08-08T05:38:03.165Z,51.259563
2023-08-08T05:39:01.133Z,51.259518
2023-08-08T05:40:01.142Z,51.259510
2023-08-08T05:41:01.162Z,51.259533
2023-08-08T05:42:01.116Z,51.259571
2023-08-08T05:43:01.111Z,51.259605
2023-08-08T05:44:01.095Z,51.259541
2023-08-08T05:45:01.083Z,51.259525
2023-08-08T05:46:01.147Z,51.259525
2023-08-08T05:47:01.072Z,51.259495
2023-08-08T05:48:01.083Z,51.259533
2023-08-08T05:49:01.055Z,51.259525
2023-08-08T05:50:01.050Z,51.259506
2023-08-08T05:51:01.046Z,51.259483
2023-08-08T05:52:01.290Z,51.259491
2023-08-08T05:53:00.997Z,51.259541
2023-08-08T05:54:02.342Z,51.259525
2023-08-08T05:55:02.001Z,51.259514
2023-08-08T05:56:00.988Z,51.259521
2023-08-08T05:57:00.955Z,51.259537
2023-08-08T05:58:00.953Z,51.259529
2023-08-08T05:59:00.963Z,51.259510
2023-08-08T06:00:02.978Z,51.259514
2023-08-08T06:01:01.926Z,51.259510
2023-08-08T06:02:01.338Z,51.259548
2023-08-08T06:03:00.961Z,51.259529
2023-08-08T06:04:00.973Z,51.259495
2023-08-08T06:05:00.897Z,51.259460
2023-08-08T06:06:00.874Z,51.259499
2023-08-08T06:07:00.869Z,51.259510
2023-08-08T06:08:00.851Z,51.259533
2023-08-08T06:09:00.872Z,51.259567
2023-08-08T06:10:00.843Z,51.259541
2023-08-08T06:11:00.833Z,51.259552
2023-08-08T06:12:01.001Z,51.259518
2023-08-08T06:13:00.821Z,51.259487
2023-08-08T06:14:00.823Z,51.259472
2023-08-08T06:15:00.780Z,51.259480
2023-08-08T06:16:00.826Z,51.259480
2023-08-08T06:17:00.768Z,51.259563
2023-08-08T06:18:00.805Z,51.259552
2023-08-08T06:19:00.771Z,51.259628
2023-08-08T06:20:00.755Z,51.259575
2023-08-08T06:21:00.727Z,51.259579
2023-08-08T06:22:00.973Z,51.259552
2023-08-08T06:23:00.720Z,51.259487
2023-08-08T06:24:00.705Z,51.259502
2023-08-08T06:25:00.689Z,51.259499
2023-08-08T06:26:00.697Z,51.259506
2023-08-08T06:27:00.672Z,51.259483
2023-08-08T06:28:00.666Z,51.259521
2023-08-08T06:29:00.635Z,51.259533
2023-08-08T06:30:00.669Z,51.259518
2023-08-08T06:31:00.612Z,51.259586
2023-08-08T06:32:00.989Z,51.259529
2023-08-08T06:33:00.601Z,51.259552
2023-08-08T06:34:00.598Z,51.259605
2023-08-08T06:35:00.583Z,51.259518
2023-08-08T06:36:00.565Z,51.259499
2023-08-08T06:37:00.587Z,51.259541
2023-08-08T06:38:00.547Z,51.259541
2023-08-08T06:39:00.531Z,51.259529
2023-08-08T06:40:00.522Z,51.259537
2023-08-08T06:41:00.542Z,51.259537
2023-08-08T06:42:00.737Z,51.259529
2023-08-08T06:43:00.495Z,51.259541
2023-08-08T06:44:00.489Z,51.259525
2023-08-08T06:45:00.480Z,51.259510
2023-08-08T06:46:00.529Z,51.259575
2023-08-08T06:47:00.451Z,51.259506
2023-08-08T06:48:00.468Z,51.259506
2023-08-08T06:49:00.456Z,51.259499
2023-08-08T06:50:00.430Z,51.259499
2023-08-08T06:51:00.428Z,51.259518
2023-08-08T06:52:00.648Z,51.259529
2023-08-08T06:53:00.390Z,51.259552
2023-08-08T06:54:00.483Z,51.259529
2023-08-08T06:55:00.394Z,51.259499
2023-08-08T06:56:00.404Z,51.259506
2023-08-08T06:57:01.449Z,51.259537
2023-08-08T06:58:01.347Z,51.259533
2023-08-08T06:59:00.344Z,51.259544
2023-08-08T07:00:00.362Z,51.259521
2023-08-08T07:01:00.351Z,51.259525
2023-08-08T07:02:00.311Z,51.259487
2023-08-08T07:03:02.069Z,51.259460
2023-08-08T07:04:00.306Z,51.259495
2023-08-08T07:05:00.285Z,51.259518
2023-08-08T07:06:00.290Z,51.259499
2023-08-08T07:07:00.249Z,51.259529
2023-08-08T07:08:00.247Z,51.259510
2023-08-08T07:09:00.245Z,51.259476
2023-08-08T07:10:00.340Z,51.259487
2023-08-08T07:11:00.213Z,51.259472
2023-08-08T07:12:00.401Z,51.259483
2023-08-08T07:13:00.186Z,51.259476
2023-08-08T07:14:00.200Z,51.259502
2023-08-08T07:15:00.179Z,51.259514
2023-08-08T07:16:00.229Z,51.259499
2023-08-08T07:17:00.154Z,51.259487
2023-08-08T07:18:00.171Z,51.259506
2023-08-08T07:19:00.169Z,51.259506
2023-08-08T07:20:00.136Z,51.259487
2023-08-08T07:21:00.111Z,51.259472
2023-08-08T07:22:00.411Z,51.259495
2023-08-08T07:23:00.107Z,51.259514
2023-08-08T07:24:00.113Z,51.259480
2023-08-08T07:25:00.108Z,51.259502
2023-08-08T07:26:00.146Z,51.259525
2023-08-08T07:27:00.065Z,51.259491
2023-08-08T07:28:00.049Z,51.259514
2023-08-08T07:29:00.029Z,51.259502
2023-08-08T07:30:00.017Z,51.259514
2023-08-08T07:31:00.027Z,51.259472
2023-08-08T07:32:00.202Z,51.259514
2023-08-08T07:33:00.887Z,51.259541
2023-08-08T07:33:59.987Z,51.259518
2023-08-08T07:34:59.959Z,51.259525
2023-08-08T07:35:59.979Z,51.259480
2023-08-08T07:36:59.963Z,51.259506
2023-08-08T07:37:59.953Z,51.259499
2023-08-08T07:38:59.929Z,51.259487
2023-08-08T07:39:59.919Z,51.259449
2023-08-08T07:40:59.896Z,51.259487
2023-08-08T07:42:01.243Z,51.259472
2023-08-08T07:42:59.885Z,51.259460
2023-08-08T07:43:59.876Z,51.259453
2023-08-08T07:44:59.865Z,51.259449
2023-08-08T07:45:59.863Z,51.259472
2023-08-08T07:46:59.898Z,51.259460
2023-08-08T07:47:59.909Z,51.259457
2023-08-08T07:48:59.839Z,51.259476
2023-08-08T07:49:59.809Z,51.259434
2023-08-08T07:50:59.815Z,51.259502
2023-08-08T07:52:00.023Z,51.259487
2023-08-08T07:52:59.906Z,51.259521
2023-08-08T07:53:59.776Z,51.259460
2023-08-08T07:54:59.760Z,51.259483
2023-08-08T07:55:59.773Z,51.259502
2023-08-08T07:56:59.759Z,51.259396
2023-08-08T07:57:59.735Z,51.259457
2023-08-08T07:58:59.722Z,51.259403
2023-08-08T07:59:59.710Z,51.259430
2023-08-08T08:01:00.437Z,51.259453
2023-08-08T08:01:59.785Z,51.259502
2023-08-08T08:02:59.782Z,51.259495
2023-08-08T08:03:59.757Z,51.259468
2023-08-08T08:04:59.664Z,51.259457
2023-08-08T08:05:59.666Z,51.259514
2023-08-08T08:07:00.653Z,51.259502
2023-08-08T08:07:59.632Z,51.259510
2023-08-08T08:08:59.626Z,51.259422
2023-08-08T08:09:59.633Z,51.259491
2023-08-08T08:10:59.615Z,51.259560
2023-08-08T08:11:59.776Z,51.259514
2023-08-08T08:12:59.640Z,51.259514
2023-08-08T08:13:59.577Z,51.259510
2023-08-08T08:14:59.575Z,51.259464
2023-08-08T08:15:59.552Z,51.259491
2023-08-08T08:16:59.587Z,51.259510
2023-08-08T08:17:59.572Z,51.259506
2023-08-08T08:18:59.552Z,51.259521
2023-08-08T08:19:59.546Z,51.259560
2023-08-08T08:20:59.505Z,51.259502
2023-08-08T08:21:59.914Z,51.259487
2023-08-08T08:22:59.508Z,51.259506
2023-08-08T08:23:59.514Z,51.259499
2023-08-08T08:24:59.475Z,51.259541
2023-08-08T08:25:59.460Z,51.259537
2023-08-08T08:26:59.455Z,51.259510
2023-08-08T08:27:59.458Z,51.259525
2023-08-08T08:28:59.453Z,51.259491
2023-08-08T08:29:59.423Z,51.259480
2023-08-08T08:30:59.463Z,51.259518
2023-08-08T08:31:59.929Z,51.259472
2023-08-08T08:32:59.450Z,51.259525
2023-08-08T08:33:59.400Z,51.259460
2023-08-08T08:34:59.377Z,51.259483
2023-08-08T08:35:59.386Z,51.259487
2023-08-08T08:36:59.362Z,51.259495
2023-08-08T08:37:59.577Z,51.259464
2023-08-08T08:39:00.355Z,51.259518
2023-08-08T08:39:59.327Z,51.259533
2023-08-08T08:40:59.320Z,51.259468
2023-08-08T08:41:59.302Z,51.259495
2023-08-08T08:42:59.328Z,51.259460
2023-08-08T08:43:59.278Z,51.259476
2023-08-08T08:45:31.187Z,51.259460
2023-08-08T08:45:59.271Z,51.259483
2023-08-08T08:46:59.313Z,51.259445
2023-08-08T08:47:59.293Z,51.259464
2023-08-08T08:48:59.239Z,51.259502
2023-08-08T08:49:59.222Z,51.259525
2023-08-08T08:50:59.217Z,51.259457
2023-08-08T08:52:00.446Z,51.259354
2023-08-08T08:52:59.203Z,51.259457
2023-08-08T08:53:59.175Z,51.259724
2023-08-08T08:54:59.167Z,51.259613
2023-08-08T08:55:59.159Z,51.259579
2023-08-08T08:56:59.212Z,51.259525
2023-08-08T08:57:59.146Z,51.259560
2023-08-08T08:58:59.141Z,51.259548
2023-08-08T08:59:59.134Z,51.259521
2023-08-08T09:00:59.189Z,51.259472
2023-08-08T09:01:59.485Z,51.259491
2023-08-08T09:02:59.257Z,51.259579
2023-08-08T09:03:59.113Z,51.259472
2023-08-08T09:04:59.078Z,51.259529
2023-08-08T09:05:59.079Z,51.259552
2023-08-08T09:06:59.060Z,51.259514
2023-08-08T09:07:59.047Z,51.259476
2023-08-08T09:09:07.459Z,51.259491
2023-08-08T09:10:01.019Z,51.259521
2023-08-08T09:10:59.031Z,51.259434
2023-08-08T09:11:59.183Z,51.259472
2023-08-08T09:12:58.989Z,51.259514
2023-08-08T09:13:58.994Z,51.259434
2023-08-08T09:14:59.007Z,51.259510
2023-08-08T09:15:59.052Z,51.259514
2023-08-08T09:16:59.119Z,51.259537
2023-08-08T09:17:58.969Z,51.259510
2023-08-08T09:18:58.943Z,51.259491
2023-08-08T09:19:58.958Z,51.259525
2023-08-08T09:20:58.911Z,51.259556
2023-08-08T09:21:59.345Z,51.259548
2023-08-08T09:22:58.888Z,51.259548
2023-08-08T09:23:58.883Z,51.259514
2023-08-08T09:24:58.892Z,51.259510
2023-08-08T09:25:58.865Z,51.259541
2023-08-08T09:26:58.875Z,51.259583
2023-08-08T09:27:58.837Z,51.259571
2023-08-08T09:28:58.846Z,51.259495
2023-08-08T09:29:58.836Z,51.259621
2023-08-08T09:30:58.834Z,51.259594
2023-08-08T09:31:59.064Z,51.259502
2023-08-08T09:32:58.799Z,51.259518
2023-08-08T09:33:58.807Z,51.259552
2023-08-08T09:34:58.774Z,51.259506
2023-08-08T09:35:58.768Z,51.259491
2023-08-08T09:36:58.754Z,51.259483
2023-08-08T09:37:58.768Z,51.259541
2023-08-08T09:38:58.752Z,51.259541
2023-08-08T09:39:58.722Z,51.259609
2023-08-08T09:40:58.705Z,51.259579
2023-08-08T09:41:58.704Z,51.259556
2023-08-08T09:42:58.722Z,51.259518
2023-08-08T09:43:58.687Z,51.259506
2023-08-08T09:44:58.663Z,51.259567
2023-08-08T09:45:58.749Z,51.259525
2023-08-08T09:46:58.657Z,51.259563
2023-08-08T09:47:58.747Z,51.259495
2023-08-08T09:48:58.633Z,51.259480
2023-08-08T09:49:58.618Z,51.259430
2023-08-08T09:50:58.609Z,51.259476
2023-08-08T09:51:58.862Z,51.259476
2023-08-08T09:52:58.600Z,51.259514
2023-08-08T09:53:58.575Z,51.259579
2023-08-08T09:54:58.569Z,51.259544
2023-08-08T09:55:58.553Z,51.259590
2023-08-08T09:56:58.566Z,51.259575
2023-08-08T09:57:58.573Z,51.259590
2023-08-08T09:58:58.540Z,51.259674
2023-08-08T09:59:58.520Z,51.259689
2023-08-08T10:00:58.508Z,51.259586
2023-08-08T10:01:58.654Z,51.259312
2023-08-08T10:02:58.595Z,51.259380
2023-08-08T10:03:58.552Z,51.259438
2023-08-08T10:04:59.590Z,51.259487
2023-08-08T10:05:58.455Z,51.259384
2023-08-08T10:06:58.467Z,51.259418
2023-08-08T10:07:58.458Z,51.259506
2023-08-08T10:08:58.418Z,51.259506
2023-08-08T10:09:58.426Z,51.259468
2023-08-08T10:10:58.445Z,51.259525
2023-08-08T10:11:58.720Z,51.259525
2023-08-08T10:12:58.382Z,51.259483
2023-08-08T10:13:58.485Z,51.259537
2023-08-08T10:14:58.377Z,51.259552
2023-08-08T10:15:58.414Z,51.259514
2023-08-08T10:16:58.344Z,51.259468
2023-08-08T10:17:58.396Z,51.259583
2023-08-08T10:18:58.355Z,51.259571
2023-08-08T10:19:58.325Z,51.259636
2023-08-08T10:20:58.327Z,51.259529
2023-08-08T10:21:58.606Z,51.259579
2023-08-08T10:23:00.477Z,51.259617
2023-08-08T10:23:59.278Z,51.259541
2023-08-08T10:24:58.271Z,51.259521
2023-08-08T10:25:59.294Z,51.259544
2023-08-08T10:26:58.253Z,51.259521
2023-08-08T10:27:58.936Z,51.259510
2023-08-08T10:28:59.816Z,51.259434
2023-08-08T10:29:59.245Z,51.259460
2023-08-08T10:30:58.212Z,51.259521
2023-08-08T10:31:58.503Z,51.259506
2023-08-08T10:32:58.214Z,51.259571
2023-08-08T10:33:58.204Z,51.259602
2023-08-08T10:34:58.861Z,51.259613
2023-08-08T10:35:58.165Z,51.259579
2023-08-08T10:36:58.231Z,51.259659
2023-08-08T10:37:58.143Z,51.259480
2023-08-08T10:38:58.155Z,51.259460
2023-08-08T10:39:58.136Z,51.259529
2023-08-08T10:40:59.155Z,51.259518
2023-08-08T10:41:58.318Z,51.259628
2023-08-08T10:42:58.082Z,51.259541
2023-08-08T10:43:58.122Z,51.259579
2023-08-08T10:44:58.069Z,51.259605
2023-08-08T10:46:07.661Z,51.259583
2023-08-08T10:47:00.611Z,51.259602
2023-08-08T10:47:58.070Z,51.259560
2023-08-08T10:48:58.057Z,51.259586
2023-08-08T10:49:58.033Z,51.259418
2023-08-08T10:50:58.006Z,51.259506
2023-08-08T10:51:58.195Z,51.259571
2023-08-08T10:52:58.019Z,51.259552
2023-08-08T10:53:57.979Z,51.259556
2023-08-08T10:54:57.984Z,51.259487
2023-08-08T10:55:57.974Z,51.259518
2023-08-08T10:56:57.949Z,51.259541
2023-08-08T10:57:57.961Z,51.259544
2023-08-08T10:58:57.931Z,51.259548
2023-08-08T10:59:57.921Z,51.259506
2023-08-08T11:00:57.967Z,51.259525
2023-08-08T11:01:58.586Z,51.259541
2023-08-08T11:02:57.933Z,51.259560
2023-08-08T11:03:57.882Z,51.259644
2023-08-08T11:04:58.441Z,51.259560
2023-08-08T11:05:57.858Z,51.259567
2023-08-08T11:06:57.860Z,51.259636
2023-08-08T11:07:57.888Z,51.259594
2023-08-08T11:08:57.825Z,51.259563
2023-08-08T11:09:57.813Z,51.259537
2023-08-08T11:10:57.813Z,51.259502
2023-08-08T11:11:58.184Z,51.259514
2023-08-08T11:12:57.796Z,51.259521
2023-08-08T11:13:57.778Z,51.259583
2023-08-08T11:14:57.764Z,51.259560
2023-08-08T11:15:57.791Z,51.259537
2023-08-08T11:16:57.968Z,51.259533
2023-08-08T11:17:57.771Z,51.259510
2023-08-08T11:18:57.730Z,51.259544
2023-08-08T11:19:57.727Z,51.259537
2023-08-08T11:21:12.580Z,51.259556
2023-08-08T11:22:00.322Z,51.259560
2023-08-08T11:22:57.694Z,51.259521
2023-08-08T11:23:57.675Z,51.259579